Archival Weather

Gondia Arpt/Birsi

Gondia Arpt/Birsi, India (VAGD)

Report from: Thursday, April 25, 2024 5:00 AM UTC
Current time: Saturday, June 22, 2024 8:56 AM UTC

Current weather – Weather history – Daily summaries
Weather forecast

Present weatherHaze
Temperature35.0°C (95.0°F)
Heat index39.6°C (103.2°F)
Dew point22.0°C (71.6°F)
Winds 4 kts (2.1 m/s, 4.6 mph) West-Northwest (300°)
Visibility3.1 mi. (5 km)
Altimeter29.83 in.Hg (1010 mB)
Relative humidity47 %
Density altitude2,733 ft. (833 m)
Remarks No significant changes expected in the next two hours
Flight conditions Marginal Visual Meteorological Conditions
Raw dataVAGD 250500Z 30004KT 5000 HZ NSC 35/22 Q1010 NOSIG
An error has occurred. This application may no longer respond until reloaded. Reload 🗙